Station: Snowtown

  Atmospheric Gas Attenuation - ITU Rec 676-11   --------------- db/100km ---------------
Date Time Temp RH % AH g/m3 Dew Point Wind Direction Speed kph Gust kph Barometer mB Rainfall Since 9am 24GHz 47GHz 76GHz 122GHz 134GHz 241GHz
24 19:10 38.8 7 3.37 -3.2 9 11 1000.8 0 7.9 13.8 15.4 39.6 26.5 88.3
24 19:00 39.4 7 3.47 -2.7 13 17 1000.7 0 8.1 13.8 15.5 40.0 27.1 90.5
24 18:50 39.8 7 3.54 -2.4 13 13 1000.5 0 8.2 13.8 15.6 40.2 27.5 92.0
24 18:40 40 6 3.06 -4.3 11 15 1000.5 0 7.3 13.4 14.4 37.1 23.7 78.7
24 18:30 40.2 6 3.1 -4.2 17 20 1000.5 0 7.3 13.4 14.5 37.3 24.0 79.6
24 18:20 40.6 6 3.16 -3.9 19 20 1000.5 0 7.4 13.4 14.6 37.5 24.3 80.9
24 18:10 40.7 7 3.7 -1.8 20 22 1000.5 0 8.5 13.9 15.8 40.8 28.4 95.4
24 18:00 41.1 7 3.78 -1.5 22 30 1000.5 0 8.7 13.9 15.9 41.1 28.9 97.2
24 17:50 41.3 7 3.82 -1.4 17 20 1000.7 0 8.8 13.9 16.0 41.3 29.2 98.1
24 17:40 41.3 7 3.82 -1.4 20 26 1000.5 0 8.8 13.9 16.0 41.3 29.2 98.0
24 17:30 41.9 7 3.93 -0.9 24 33 1000.6 0 9.0 13.9 16.1 41.7 29.8 100.4
24 17:20 41.7 7 3.89 -1.1 32 39 1000.8 0 8.9 13.9 16.1 41.5 29.6 99.5
24 17:10 41.6 7 3.87 -1.1 32 37 1000.8 0 8.8 13.9 16.0 41.5 29.5 99.1
24 17:00 42 7 3.95 -0.9 32 50 1000.8 0 9.0 13.9 16.2 41.8 29.9 100.8
24 16:50 41.9 7 3.93 -0.9 32 37 1001 0 9.0 13.9 16.1 41.7 29.8 100.4
24 16:40 41.5 7 3.85 -1.2 28 33 1001.1 0 8.8 13.9 16.0 41.4 29.3 98.7
24 16:30 41.6 7 3.87 -1.1 32 41 1001.1 0 8.8 13.9 16.1 41.5 29.5 99.1
24 16:20 41.8 7 3.91 -1 30 33 1001.3 0 8.9 13.9 16.1 41.7 29.7 100.0
24 16:10 42.1 7 3.97 -0.8 33 39 1001.5 0 9.0 14.0 16.2 41.9 30.1 101.3
24 16:00 43.1 7 4.17 -0.1 32 43 1001.3 0 9.4 14.0 16.5 42.7 31.3 105.6
24 15:50 43.3 7 4.21 0.1 26 35 1001.6 0 9.5 14.0 16.5 42.8 31.5 106.5
24 15:40 42.9 7 4.13 -0.2 33 44 1001.6 0 9.3 14.0 16.4 42.5 31.0 104.8
24 15:30 42.9 7 4.13 -0.2 33 50 1001.7 0 9.3 14.0 16.4 42.5 31.0 104.8
24 15:20 41.9 7 3.93 -0.9 35 41 1002 0 9.0 14.0 16.2 41.8 29.9 100.5
24 15:10 42.7 7 4.09 -0.4 39 46 1002.3 0 9.3 14.0 16.4 42.4 30.8 104.0
24 15:00 42.2 7 3.99 -0.7 30 46 1002.3 0 9.1 14.0 16.2 42.0 30.2 101.8
24 14:50 42.5 6 3.47 -2.6 17 20 1002.6 0 8.0 13.5 15.0 38.7 26.2 87.6
24 14:40 42.3 6 3.44 -2.7 35 41 1002.8 0 8.0 13.5 15.0 38.6 26.0 87.0
24 14:30 43.4 6 3.63 -2 32 44 1002.7 0 8.3 13.5 15.2 39.3 27.1 90.9
24 14:20 43.3 6 3.61 -2 26 30 1002.9 0 8.3 13.5 15.2 39.2 27.0 90.5
24 14:10 42.5 6 3.47 -2.6 41 48 1003.1 0 8.0 13.5 15.0 38.7 26.2 87.6
24 14:00 42.4 7 4.03 -0.6 35 52 1003.2 0 9.1 14.0 16.3 42.2 30.5 102.8
24 13:50 41.6 7 3.87 -1.1 26 30 1003.2 0 8.8 14.0 16.1 41.6 29.5 99.3
24 13:40 41.6 8 4.43 0.7 33 44 1003.5 0 10.0 14.5 17.4 45.1 33.9 114.8
24 13:30 41.7 8 4.45 0.8 35 46 1003.6 0 10.0 14.5 17.5 45.2 34.0 115.2
24 13:20 42.1 7 3.97 -0.8 30 37 1003.7 0 9.0 14.0 16.3 42.0 30.1 101.5
24 13:10 41.8 7 3.91 -1 43 46 1003.8 0 8.9 14.0 16.2 41.8 29.8 100.3
24 13:00 41.4 8 4.38 0.5 35 50 1003.8 0 9.9 14.5 17.4 44.9 33.6 113.7
24 12:50 41.5 7 3.85 -1.2 35 43 1004 0 8.8 14.0 16.1 41.6 29.4 99.0
24 12:40 41.7 7 3.89 -1.1 37 44 1004.1 0 8.9 14.0 16.1 41.7 29.7 99.9
24 12:30 40.8 8 4.25 0.1 35 48 1004.1 0 9.6 14.5 17.2 44.4 32.8 110.8
24 12:20 40.6 8 4.21 0 33 39 1004.2 0 9.6 14.5 17.1 44.3 32.6 110.0
24 12:10 41.1 8 4.32 0.3 35 41 1004.4 0 9.8 14.5 17.3 44.7 33.3 112.5
24 12:00 41.6 7 3.87 -1.1 32 43 1004.4 0 8.8 14.0 16.1 41.7 29.6 99.4
24 11:50 40.9 8 4.27 0.2 33 37 1004.4 0 9.7 14.5 17.2 44.5 32.9 111.3
24 11:40 41.8 8 4.47 0.8 35 43 1004.4 0 10.0 14.6 17.5 45.4 34.2 115.8
24 11:30 41.5 8 4.4 0.6 30 43 1004.7 0 9.9 14.5 17.4 45.1 33.7 114.2
24 11:20 40.7 8 4.23 0 35 39 1004.7 0 9.6 14.5 17.2 44.4 32.7 110.5
24 11:10 40 8 4.09 -0.5 32 35 1004.8 0 9.3 14.5 17.0 43.8 31.9 107.4
24 11:00 40.3 8 4.15 -0.3 35 44 1004.9 0 9.4 14.5 17.0 44.1 32.2 108.7
24 10:50 40.5 8 4.19 -0.1 39 46 1004.9 0 9.5 14.5 17.1 44.2 32.5 109.6
24 10:40 40.1 7 3.59 -2.2 30 35 1005 0 8.3 14.0 15.8 40.6 27.9 93.4
24 10:30 39.9 8 4.07 -0.5 32 46 1005.1 0 9.3 14.5 16.9 43.8 31.7 107.0
24 10:20 40.4 8 4.17 -0.2 30 33 1005.1 0 9.5 14.5 17.1 44.2 32.4 109.2
24 10:10 39 8 3.89 -1.2 32 37 1005.3 0 9.0 14.4 16.7 43.1 30.6 103.0
24 10:00 38.7 8 3.83 -1.4 28 37 1005.4 0 8.8 14.4 16.6 42.8 30.3 101.7
24 09:50 38.2 8 3.73 -1.8 26 30 1005.5 0 8.6 14.4 16.4 42.4 29.6 99.4
24 09:40 37.2 8 3.55 -2.5 28 30 1005.6 0 8.3 14.3 16.2 41.7 28.5 95.4
24 09:30 36.6 8 3.44 -3 22 28 1005.6 0 8.1 14.3 16.0 41.3 27.8 92.9
24 09:20 36 8 3.33 -3.4 20 24 1005.6 0 7.9 14.3 15.9 40.9 27.1 90.4
24 09:10 35.2 8 3.2 -4 20 20 1005.6 0 7.6 14.3 15.7 40.4 26.3 87.5
24 09:00 34.6 8 3.1 -4.4 17 20 1005.6 0 7.5 14.3 15.6 40.0 25.7 85.2
24 08:50 34.2 8 3.03 -4.7 17 20 1005.6 0 7.3 14.2 15.5 39.7 25.2 83.5
24 08:40 33.8 8 2.97 -5 20 22 1005.6 0 7.2 14.2 15.4 39.5 24.9 82.2
24 08:30 33.6 9 3.31 -3.6 22 24 1005.7 0 7.9 14.6 16.3 41.9 27.7 92.3
24 08:20 33.3 9 3.26 -3.8 22 24 1005.7 0 7.8 14.6 16.2 41.7 27.4 91.1
24 08:10 33.1 8 2.86 -5.5 32 33 1005.6 0 7.0 14.2 15.2 39.1 24.2 79.6
24 08:00 33.5 9 3.29 -3.7 26 35 1005.6 0 7.9 14.6 16.2 41.8 27.6 91.8
24 07:50 32.2 9 3.07 -4.6 22 28 1005.7 0 7.4 14.6 15.9 40.9 26.2 86.6
24 07:40 31.2 10 3.24 -4 20 24 1005.7 0 7.8 14.9 16.5 42.5 27.9 92.7
24 07:30 30.6 10 3.13 -4.4 15 20 1005.6 0 7.6 14.9 16.4 42.1 27.2 90.0
24 07:20 29.8 11 3.3 -3.8 17 17 1005.5 0 8.0 15.2 17.0 43.6 28.9 96.0
24 07:10 28.9 11 3.14 -4.5 19 20 1005.4 0 7.7 15.1 16.7 43.0 27.8 92.0
24 07:00 27.1 12 3.11 -4.7 17 20 1005.5 0 7.6 15.4 17.0 43.7 28.1 93.0
24 06:50 26 13 3.16 -4.5 15 17 1005.3 0 7.8 15.6 17.3 44.6 28.9 95.8
24 06:40 25.1 13 3.01 -5.2 15 15 1005.3 0 7.5 15.6 17.1 43.9 27.9 92.0
24 06:30 25.4 13 3.06 -5 15 17 1005.2 0 7.6 15.6 17.2 44.2 28.2 93.2
24 06:20 25.5 14 3.31 -3.9 15 17 1005.3 0 8.1 15.9 17.8 45.9 30.5 101.2
24 06:10 25.6 13 3.09 -4.8 13 15 1005.2 0 7.6 15.6 17.2 44.3 28.4 94.0
24 06:00 26.9 13 3.33 -3.8 17 19 1005.1 0 8.1 15.6 17.6 45.3 30.1 100.2
24 05:50 25.9 14 3.39 -3.6 17 17 1005 0 8.2 15.9 18.0 46.3 31.0 103.2
24 05:40 25.5 14 3.31 -3.9 13 13 1005 0 8.1 15.8 17.8 45.9 30.4 101.1
24 05:30 26.4 13 3.24 -4.2 15 19 1004.9 0 7.9 15.6 17.4 44.9 29.5 97.9
24 05:20 26.6 13 3.27 -4 15 17 1005 0 8.0 15.6 17.5 45.1 29.7 98.6
24 04:50 25.4 14 3.3 -4 15 17 1005 0 8.1 15.9 17.8 45.9 30.4 100.9
24 04:40 26.4 14 3.49 -3.2 13 15 1005 0 8.4 15.9 18.1 46.8 31.8 105.9
24 04:30 26.8 13 3.31 -3.9 13 20 1005 0 8.1 15.6 17.6 45.2 30.0 99.6
24 04:20 25.4 14 3.3 -4 13 13 1005 0 8.1 15.9 17.8 45.9 30.4 100.9
24 04:10 27.4 13 3.42 -3.4 17 17 1005.1 0 8.3 15.7 17.7 45.7 30.8 102.4
24 04:00 27.3 13 3.4 -3.5 13 17 1005.1 0 8.2 15.7 17.7 45.6 30.6 101.9
24 03:50 27.3 13 3.4 -3.5 9 13 1005.2 0 8.2 15.7 17.7 45.6 30.6 101.9
24 03:40 26.7 12 3.04 -5 13 15 1005.4 0 7.5 15.4 16.9 43.4 27.6 91.2
24 03:30 28.7 12 3.39 -3.5 13 17 1005.4 0 8.2 15.4 17.4 44.8 30.0 100.0
24 03:20 27.6 12 3.19 -4.3 15 17 1005.4 0 7.8 15.4 17.1 44.0 28.6 95.0
24 03:10 27.3 12 3.14 -4.6 13 13 1005.5 0 7.7 15.4 17.0 43.8 28.3 93.8
24 03:00 28.4 12 3.34 -3.7 7 13 1005.6 0 8.1 15.4 17.3 44.7 29.7 98.8
24 02:50 27.9 12 3.25 -4.1 6 7 1005.6 0 7.9 15.4 17.2 44.3 29.1 96.6
24 02:40 29 11 3.16 -4.4 9 13 1005.8 0 7.7 15.2 16.7 43.1 27.9 92.6
24 02:30 29.8 12 3.6 -2.6 9 20 1005.8 0 8.6 15.5 17.7 45.8 31.5 105.3
24 02:20 28.7 12 3.39 -3.5 9 9 1005.9 0 8.2 15.5 17.4 44.9 30.1 100.1

Last Refresh: 24-Jan-2021 19:21:54

Most of the information presented on this site is sourced from the Bureau of Meteorology.  Copyright in all material sourced from the Bureau of Meteorology resides with the Commonwealth of Australia.